createdAt,value
2022-08-27T00:00:03.181Z,6.97
2022-08-27T00:05:08.504Z,7.65
2022-08-27T00:10:16.182Z,7.15
2022-08-27T00:15:20.152Z,7.80
2022-08-27T00:20:26.096Z,7.40
2022-08-27T00:25:31.453Z,7.45
2022-08-27T00:30:35.826Z,6.88
2022-08-27T00:35:39.876Z,7.50
2022-08-27T00:40:45.777Z,7.47
2022-08-27T00:50:55.866Z,6.70
2022-08-27T00:56:10.183Z,7.07
2022-08-27T01:01:17.225Z,7.57
2022-08-27T01:06:22.552Z,7.65
2022-08-27T01:11:28.039Z,8.13
2022-08-27T01:16:39.638Z,7.18
2022-08-27T01:21:47.957Z,7.03
2022-08-27T01:26:53.452Z,7.72
2022-08-27T01:32:01.085Z,7.47
2022-08-27T01:37:06.752Z,8.35
2022-08-27T01:42:16.891Z,7.38
2022-08-27T01:47:22.839Z,7.22
2022-08-27T01:52:34.728Z,7.95
2022-08-27T01:57:40.415Z,7.20
2022-08-27T02:02:45.171Z,7.07
2022-08-27T02:07:49.303Z,7.22
2022-08-27T02:12:54.780Z,8.23
2022-08-27T02:17:58.807Z,7.35
2022-08-27T02:23:04.568Z,7.07
2022-08-27T02:33:14.783Z,7.80
2022-08-27T02:38:20.128Z,7.35
2022-08-27T02:43:25.732Z,8.00
2022-08-27T02:48:32.220Z,6.90
2022-08-27T02:53:37.530Z,7.10
2022-08-27T02:58:43.844Z,7.63
2022-08-27T03:03:47.989Z,7.45
2022-08-27T03:08:52.752Z,7.40
2022-08-27T03:13:59.116Z,7.70
2022-08-27T03:19:03.175Z,7.28
2022-08-27T03:24:11.344Z,6.68
2022-08-27T03:29:20.011Z,8.07
2022-08-27T03:34:24.047Z,7.07
2022-08-27T03:39:28.063Z,7.72
2022-08-27T03:44:33.592Z,8.25
2022-08-27T03:49:37.667Z,7.88
2022-08-27T03:54:42.178Z,8.00
2022-08-27T03:59:47.544Z,7.72
2022-08-27T04:04:51.776Z,9.00
2022-08-27T04:09:55.794Z,7.47
2022-08-27T04:15:01.239Z,8.13
2022-08-27T04:20:31.777Z,7.70
2022-08-27T04:25:30.536Z,9.35
2022-08-27T04:30:35.994Z,8.95
2022-08-27T04:35:40.004Z,8.50
2022-08-27T04:41:01.656Z,8.52
2022-08-27T04:46:07.679Z,8.27
2022-08-27T04:51:11.792Z,8.45
2022-08-27T04:56:21.855Z,8.82
2022-08-27T05:01:29.849Z,15.15
2022-08-27T05:06:34.711Z,12.05
2022-08-27T05:11:39.374Z,10.15
2022-08-27T05:16:44.750Z,10.40
2022-08-27T05:21:50.171Z,8.70
2022-08-27T05:26:54.530Z,9.98
2022-08-27T05:31:59.919Z,11.27
2022-08-27T05:37:05.131Z,8.57
2022-08-27T05:42:09.159Z,8.07
2022-08-27T05:47:14.650Z,9.25
2022-08-27T05:52:19.192Z,8.70
2022-08-27T05:57:23.168Z,9.27
2022-08-27T06:02:29.148Z,9.32
2022-08-27T06:07:35.082Z,9.32
2022-08-27T06:12:39.215Z,8.60
2022-08-27T06:17:44.630Z,8.63
2022-08-27T06:27:52.347Z,8.48
2022-08-27T06:32:57.718Z,8.20
2022-08-27T06:38:01.799Z,8.93
2022-08-27T06:43:05.847Z,9.00
2022-08-27T06:48:11.371Z,9.40
2022-08-27T06:53:15.833Z,9.00
2022-08-27T06:58:20.674Z,9.63
2022-08-27T07:03:26.095Z,9.60
2022-08-27T07:08:30.340Z,9.13
2022-08-27T07:13:34.353Z,8.88
2022-08-27T07:18:40.747Z,8.23
2022-08-27T07:23:45.399Z,8.77
2022-08-27T07:28:50.185Z,9.38
2022-08-27T07:33:55.847Z,8.60
2022-08-27T07:39:01.277Z,8.32
2022-08-27T07:44:26.052Z,9.25
2022-08-27T07:49:35.154Z,8.73
2022-08-27T07:54:39.111Z,10.07
2022-08-27T07:59:42.963Z,9.63
2022-08-27T08:04:48.279Z,9.20
2022-08-27T08:09:52.270Z,8.25
2022-08-27T08:14:58.112Z,8.13
2022-08-27T08:20:27.457Z,8.70
2022-08-27T08:25:28.487Z,7.88
2022-08-27T08:30:38.639Z,9.50
2022-08-27T08:35:44.111Z,9.90
2022-08-27T08:40:50.805Z,9.05
2022-08-27T08:45:56.084Z,9.50
2022-08-27T08:51:06.487Z,8.63
2022-08-27T08:56:12.884Z,9.38
2022-08-27T09:01:18.646Z,8.13
2022-08-27T09:06:31.205Z,8.90
2022-08-27T09:11:40.818Z,10.27
2022-08-27T09:16:44.887Z,10.35
2022-08-27T09:21:57.243Z,8.68
2022-08-27T09:27:01.528Z,9.48
2022-08-27T09:32:08.716Z,9.80
2022-08-27T09:37:16.663Z,9.40
2022-08-27T09:42:27.904Z,8.48
2022-08-27T09:47:32.061Z,7.78
2022-08-27T09:52:40.932Z,8.07
2022-08-27T09:57:44.960Z,9.30
2022-08-27T10:02:54.008Z,11.05
2022-08-27T10:08:02.619Z,8.80
2022-08-27T10:13:10.321Z,9.50
2022-08-27T10:18:19.987Z,7.97
2022-08-27T10:23:33.230Z,7.20
2022-08-27T10:28:51.556Z,8.35
2022-08-27T10:34:12.319Z,6.57
2022-08-27T10:39:28.675Z,7.07
2022-08-27T10:44:42.511Z,7.40
2022-08-27T10:49:51.151Z,8.27
2022-08-27T10:55:01.001Z,8.98
2022-08-27T11:00:11.747Z,8.68
2022-08-27T11:05:19.633Z,9.77
2022-08-27T11:10:29.694Z,9.30
2022-08-27T11:15:36.863Z,9.45
2022-08-27T11:20:45.102Z,9.10
2022-08-27T11:25:54.206Z,10.63
2022-08-27T11:31:02.418Z,10.80
2022-08-27T11:36:32.459Z,10.43
2022-08-27T11:42:03.484Z,10.75
2022-08-27T11:47:13.317Z,10.32
2022-08-27T11:52:29.157Z,9.88
2022-08-27T11:57:36.357Z,10.25
2022-08-27T12:02:40.703Z,10.60
2022-08-27T12:07:47.733Z,10.60
2022-08-27T12:13:01.086Z,10.07
2022-08-27T12:18:10.470Z,10.65
2022-08-27T12:23:38.443Z,11.57
2022-08-27T12:28:45.351Z,10.15
2022-08-27T12:33:51.612Z,12.20
2022-08-27T12:38:58.146Z,10.73
2022-08-27T12:44:09.119Z,10.55
2022-08-27T12:49:38.643Z,10.60
2022-08-27T12:54:47.311Z,11.35
2022-08-27T13:00:04.482Z,10.07
2022-08-27T13:05:10.212Z,9.45
2022-08-27T13:10:16.972Z,9.75
2022-08-27T13:15:22.517Z,10.15
2022-08-27T13:20:27.770Z,10.00
2022-08-27T13:25:34.548Z,9.13
2022-08-27T13:30:42.211Z,9.85
2022-08-27T13:35:47.556Z,9.40
2022-08-27T13:40:59.864Z,9.43
2022-08-27T13:46:07.920Z,9.75
2022-08-27T13:51:13.330Z,10.43
2022-08-27T13:56:29.143Z,10.73
2022-08-27T14:01:34.654Z,10.23
2022-08-27T14:06:43.284Z,10.43
2022-08-27T14:11:48.098Z,9.20
2022-08-27T14:17:00.298Z,8.80
2022-08-27T14:22:04.609Z,8.23
2022-08-27T14:27:11.442Z,8.98
2022-08-27T14:32:17.208Z,9.50
2022-08-27T14:37:21.638Z,11.05
2022-08-27T14:42:25.620Z,11.02
2022-08-27T14:47:34.332Z,10.70
2022-08-27T14:52:39.432Z,9.38
2022-08-27T14:57:43.479Z,9.02
2022-08-27T15:07:53.951Z,10.35
2022-08-27T15:12:58.282Z,9.73
2022-08-27T15:18:03.703Z,10.27
2022-08-27T15:23:07.915Z,9.90
2022-08-27T15:28:12.130Z,25.23
2022-08-27T15:33:17.735Z,10.93
2022-08-27T15:38:21.731Z,14.18
2022-08-27T15:43:26.822Z,17.83
2022-08-27T15:48:32.356Z,19.52
2022-08-27T15:53:37.020Z,12.80
2022-08-27T16:03:47.220Z,15.93
2022-08-27T16:08:51.481Z,9.85
2022-08-27T16:13:55.974Z,19.25
2022-08-27T16:19:02.572Z,23.92
2022-08-27T16:24:09.322Z,12.63
2022-08-27T16:29:15.088Z,13.55
2022-08-27T16:34:23.474Z,12.30
2022-08-27T16:39:31.743Z,12.88
2022-08-27T16:44:37.081Z,12.65
2022-08-27T16:50:00.046Z,12.18
2022-08-27T16:55:03.959Z,10.55
2022-08-27T17:00:09.398Z,11.93
2022-08-27T17:05:34.282Z,12.38
2022-08-27T17:15:43.476Z,11.77
2022-08-27T17:20:49.075Z,12.75
2022-08-27T17:25:53.075Z,13.57
2022-08-27T17:30:57.656Z,13.45
2022-08-27T17:36:03.396Z,14.10
2022-08-27T17:41:12.548Z,14.32
2022-08-27T17:46:16.708Z,14.38
2022-08-27T17:51:22.571Z,13.27
2022-08-27T17:56:26.907Z,13.30
2022-08-27T18:01:32.956Z,14.50
2022-08-27T18:06:39.169Z,15.30
2022-08-27T18:11:44.479Z,14.00
2022-08-27T18:21:53.739Z,13.23
2022-08-27T18:26:57.788Z,12.15
2022-08-27T18:32:01.857Z,13.63
2022-08-27T18:37:07.725Z,14.18
2022-08-27T18:42:12.091Z,14.55
2022-08-27T18:47:16.156Z,15.20
2022-08-27T18:52:22.086Z,13.52
2022-08-27T18:57:26.593Z,11.45
2022-08-27T19:02:30.867Z,12.80
2022-08-27T19:07:36.662Z,12.45
2022-08-27T19:17:47.205Z,12.45
2022-08-27T19:22:52.504Z,12.65
2022-08-27T19:27:57.099Z,13.30
2022-08-27T19:33:01.119Z,11.93
2022-08-27T19:38:06.658Z,18.77
2022-08-27T19:43:13.094Z,21.73
2022-08-27T19:48:17.178Z,22.10
2022-08-27T19:53:22.563Z,19.88
2022-08-27T19:58:26.561Z,20.13
2022-08-27T20:03:30.596Z,24.45
2022-08-27T20:08:36.130Z,17.90
2022-08-27T20:13:50.838Z,24.50
2022-08-27T20:18:58.400Z,28.80
2022-08-27T20:24:06.525Z,28.17
2022-08-27T20:29:11.432Z,29.75
2022-08-27T20:34:19.301Z,29.13
2022-08-27T20:39:24.815Z,23.02
2022-08-27T20:44:29.115Z,22.13
2022-08-27T20:49:35.378Z,22.15
2022-08-27T20:54:41.091Z,22.23
2022-08-27T21:05:11.794Z,18.73
2022-08-27T21:10:17.780Z,22.80
2022-08-27T21:15:21.755Z,18.80
2022-08-27T21:20:25.768Z,19.05
2022-08-27T21:25:31.478Z,23.48
2022-08-27T21:30:36.132Z,23.73
2022-08-27T21:35:40.108Z,21.50
2022-08-27T21:40:45.554Z,22.10
2022-08-27T21:45:49.555Z,20.02
2022-08-27T21:50:54.110Z,18.85
2022-08-27T21:55:59.547Z,18.40
2022-08-27T22:01:05.384Z,16.42
2022-08-27T22:06:11.379Z,17.98
2022-08-27T22:11:22.007Z,16.35
2022-08-27T22:16:29.169Z,16.40
2022-08-27T22:21:33.339Z,16.77
2022-08-27T22:26:38.799Z,17.40
2022-08-27T22:36:47.852Z,15.93
2022-08-27T22:41:53.248Z,19.38
2022-08-27T22:46:57.395Z,19.30
2022-08-27T22:52:01.744Z,18.30
2022-08-27T22:57:09.827Z,16.33
2022-08-27T23:02:14.861Z,18.52
2022-08-27T23:07:18.763Z,16.15
2022-08-27T23:12:24.354Z,14.38
2022-08-27T23:17:28.421Z,15.68
2022-08-27T23:22:32.408Z,14.75
2022-08-27T23:27:37.944Z,14.48
2022-08-27T23:32:46.332Z,15.38
2022-08-27T23:37:54.119Z,15.73
2022-08-27T23:42:59.647Z,20.00
2022-08-27T23:48:03.772Z,20.67
2022-08-27T23:53:08.198Z,13.70
2022-08-27T23:58:14.031Z,12.27
